Terminal Aerodrome Forecast
Issued by NWS

Home | Current Version | Previous Version | Graphics & Text | Print | Product List | Glossary On
Versions: 1 2 3 4 5 6 7 8 9 10 11 12 13 14 15 16 17
000
FTUS43 KMPX 031120
TAFAXN
TAF
KAXN 031120Z 0312/0412 18009KT P6SM SKC
     FM031300 29010KT P6SM SCT090
     FM031600 34013G23KT P6SM BKN090
     FM040100 35007KT P6SM SKC=

USA.gov is the U.S. government's official web portal to all federal, state and local government web resources and services.